Smith Valley, Nevada Weather observations

Data are for 10 minute period ending at time listed.
 Day   Time   Solar   Ave.   Ave.  Ave.  Vector  Max.   Baro.   Total    
  of    of     Rad.   Air    Rel.  Wind   Wind   Wind  Press.  Precip.   
Year   Day            Temp.  Hum.  Speed  Dir.   Gust                    
2014   (PST)  Kw/m2    F      %     mph   deg.    mph    mb.     in.     
-------------------------------------------------------------------------
 359    0:50   0.00   30.1    48    3.5    34     8.7   847.2    0.00 
 359    1:00   0.00   29.9    49    3.4    73     5.9   847.3    0.00 
 359    1:10   0.00   27.2    57    4.0    88     6.9   847.4    0.00 
 359    1:20   0.00   25.8    61    2.2    66     5.4   847.4    0.00 
 359    1:30   0.00   24.9    64    7.5   105    11.3   847.7    0.00 
 359    1:40   0.00   25.3    65    6.2    96    10.9   847.8    0.00 
 359    1:50   0.00   24.9    63    2.5    95     5.0   847.8    0.00 
 359    2:00   0.00   24.3    64    4.8   105     6.7   847.8    0.00 
 359    2:10   0.00   24.8    62    4.1    78     6.1   847.9    0.00 
 359    2:20   0.00   25.2    61    1.1    29     2.5   848.1    0.00 
 359    2:30   0.00   25.5    58    3.6    83     5.0   848.2    0.00 
 359    2:40   0.00   22.4    64    3.9    98     5.0   848.3    0.00 
 359    2:50   0.00   20.2    70    3.9   158     4.9   848.4    0.00 
 359    3:00   0.00   19.7    74    1.7   249     4.2   848.3    0.00 
 359    3:10   0.00   21.3    68    4.1   103     8.4   848.4    0.00 
 359    3:20   0.00   21.4    74    5.8   155     9.3   848.5    0.00 
 359    3:30   0.00   22.0    72    4.5   171     8.2   848.4    0.00 
 359    3:40   0.00   21.7    70    4.2   150     6.1   848.1    0.00 
 359    3:50   0.00   20.0    74    4.9   145     6.5   848.2    0.00 
 359    4:00   0.00   18.6    75    4.6   228     7.0   848.2    0.00 
 359    4:10   0.00   19.9    73    1.9   205     4.4   848.1    0.00 
 359    4:20   0.00   21.5    67    1.1   232     2.2   847.9    0.00 
 359    4:30   0.00   20.2    69    3.5   152     7.4   848.0    0.00 
 359    4:40   0.00   18.6    76    2.6   164     7.3   848.0    0.00 
 359    4:50   0.00   19.0    76    0.3   145     2.1   848.1    0.00 
 359    5:00   0.00   19.8    76    0.7   148     2.1   848.2    0.00 
 359    5:10   0.00   20.5    74    1.4   173     2.3   848.3    0.00 
 359    5:20   0.00   20.4    77    2.1   138     4.3   848.4    0.00 
 359    5:30   0.00   20.7    80    4.7   169     6.9   848.4    0.00 
 359    5:40   0.00   20.9    79    3.0   298     4.7   848.3    0.00 
 359    5:50   0.00   21.0    75    2.2   171     4.8   848.2    0.00 
 359    6:00   0.00   20.2    76    2.2   282     4.3   848.5    0.00 
 359    6:10   0.00   21.6    73    5.6   264    11.3   848.5    0.00 
 359    6:20   0.00   23.0    69    6.1   268     7.9   848.6    0.00 
 359    6:30   0.00   23.0    69    7.1   282    12.9   848.7    0.00 
 359    6:40   0.00   22.3    71    7.8   277    11.0   848.7    0.00 
 359    6:50   0.00   21.5    72    4.0   276     6.6   848.7    0.00 
 359    7:00   0.00   21.4    71    1.4   256     5.1   848.7    0.00 
 359    7:10   0.00   21.8    69    3.2    89     7.8   848.7    0.00 
 359    7:20   0.01   20.3    72    3.9    94     7.2   848.7    0.00 
 359    7:30   0.01   24.4    64    2.0   276     7.2   848.7    0.00 
 359    7:40   0.02   26.0    59    4.1   276     8.0   848.5    0.00 
 359    7:50   0.02   22.7    65    2.6    54     5.5   848.6    0.00 
 359    8:00   0.02   21.6    69    2.9   100     5.0   848.7    0.00 
 359    8:10   0.03   21.3    70    1.3    27     2.7   848.9    0.00 
 359    8:20   0.04   20.5    71    3.1   107     5.5   849.0    0.00 
 359    8:30   0.07   21.9    72    2.5    81     5.8   849.1    0.00 
 359    8:40   0.10   22.7    71    4.1    82     6.9   849.2    0.00 
 359    8:50   0.12   23.7    72    3.0    97     6.8   849.4    0.00 
 359    9:00   0.12   25.1    68    1.8    65     4.1   849.6    0.00 
 359    9:10   0.15   26.8    65    3.7   289     8.2   849.7    0.00 
 359    9:20   0.16   26.7    66    7.7   287    12.3   849.7    0.00 
 359    9:30   0.15   27.2    68    5.4   288     8.2   849.7    0.00 
 359    9:40   0.15   28.5    65    4.3   154     9.6   849.7    0.00 
 359    9:50   0.17   28.6    61    3.2   307     7.7   849.8    0.00 
 359   10:00   0.23   28.5    62    2.3     7     5.3   849.9    0.00 
 359   10:10   0.18   29.5    58    3.1   351     6.9   850.0    0.00 
 359   10:20   0.18   29.3    60    3.7   297     9.6   850.1    0.00 
 359   10:30   0.16   28.8    63    4.9   264     9.6   850.0    0.00 
 359   10:40   0.16   29.7    65    3.1   283     8.2   850.0    0.00 
 359   10:50   0.20   30.2    62    5.3   280     7.5   849.9    0.00 
 359   11:00   0.23   30.6    61    6.7   294    10.2   849.9    0.00 
 359   11:10   0.31   30.9    59    6.5   288     9.0   849.8    0.00 
 359   11:20   0.28   31.3    60    4.4   295     7.4   849.7    0.00 
 359   11:30   0.30   32.2    54    5.1   275     8.1   849.7    0.00 
 359   11:40   0.22   32.6    50    2.7   280     4.4   849.6    0.00 
 359   11:50   0.26   33.1    52    3.3   304     5.1   849.6    0.00 
 359   12:00   0.24   33.3    52    4.9   296     6.9   849.5    0.00 
 359   12:10   0.28   32.8    53    5.4   293     9.8   849.4    0.00 
 359   12:20   0.27   33.1    50    4.0   293     8.0   849.4    0.00 
 359   12:30   0.27   33.2    50    7.0    12    10.4   849.4    0.00 
 359   12:40   0.30   33.0    50    8.5    18    14.0   849.3    0.00 
 359   12:50   0.20   32.9    50    6.6   355    11.9   849.3    0.00 
 359   13:00   0.16   32.8    51    5.2   353     8.2   849.2    0.00 
 359   13:10   0.19   32.9    51    3.3   358     5.6   849.2    0.00 
 359   13:20   0.24   33.2    50    3.5     6     6.2   849.2    0.00 
 359   13:30   0.33   33.9    52    8.8    18    15.5   849.1    0.00 
 359   13:40   0.34   34.4    55   10.7    13    16.8   849.0    0.00 
 359   13:50   0.27   33.9    54   10.0   345    14.8   849.0    0.00 
 359   14:00   0.43   34.4    51   10.1   356    14.2   849.0    0.00 
 359   14:10   0.33   34.5    51   10.2     4    15.6   849.0    0.00 
 359   14:20   0.19   33.8    51    8.9     2    14.2   849.1    0.00 
 359   14:30   0.30   34.1    50    8.9    20    14.8   849.1    0.00 
 359   14:40   0.13   33.5    51   11.4    29    17.5   849.1    0.00 
 359   14:50   0.13   33.0    54    9.5    38    13.3   849.2    0.00 
 359   15:00   0.26   33.7    54    8.1    38    12.6   849.3    0.00 
 359   15:10   0.12   32.9    54    7.4    39    11.1   849.3    0.00 
 359   15:20   0.25   33.5    54    6.0    34     8.5   849.3    0.00 
 359   15:30   0.08   33.3    54    6.8     9    12.3   849.3    0.00 
 359   15:40   0.05   32.2    59    7.8    10    12.9   849.4    0.00 
 359   15:50   0.05   31.6    62    7.0    16    10.7   849.5    0.00 
 359   16:00   0.03   30.7    69    6.3    29     9.1   849.6    0.00 
 359   16:10   0.02   29.8    72    4.2    42     6.3   849.6    0.00 
 359   16:20   0.02   28.7    75    2.8    59     3.7   849.7    0.00 
 359   16:30   0.01   28.1    76    2.9    78     3.7   849.6    0.00 
 359   16:40   0.01   27.6    77    3.3    78     4.2   849.7    0.00 
 359   16:50   0.01   27.1    78    3.2   351     5.3   849.7    0.00 
 359   17:00   0.00   25.7    80    1.8   360     4.5   849.8    0.00 
 359   17:10   0.00   24.9    80    0.9    99     2.5   849.7    0.00 
 359   17:20   0.00   25.1    81    1.8   165     2.9   849.9    0.00 
 359   17:30   0.00   25.6    78    2.1   127     3.8   849.9    0.00 
 359   17:40   0.00   25.0    77    3.1   119     4.3   850.0    0.00 
 359   17:50   0.00   24.8    77    3.3   119     4.1   849.9    0.00 
 359   18:00   0.00   22.9    81    4.5   134     5.6   850.0    0.00 
 359   18:10   0.00   22.8    81    4.3   147     5.2   850.1    0.00 
 359   18:20   0.00   22.6    80    3.5   144     4.2   850.2    0.00 
 359   18:30   0.00   22.9    79    3.4   156     4.1   850.2    0.00 
 359   18:40   0.00   22.0    81    3.9   153     5.2   850.5    0.00 
 359   18:50   0.00   21.6    86    4.3   141     5.4   850.6    0.00 
 359   19:00   0.00   22.6    86    3.4   151     5.0   850.8    0.00 
 359   19:10   0.00   23.3    87    3.2   150     4.2   850.8    0.00 
 359   19:20   0.00   23.9    87    3.5   162     5.1   850.8    0.00 
 359   19:30   0.00   24.8    85    3.9   160     5.1   850.8    0.00 
 359   19:40   0.00   25.3    83    3.8   153     5.0   850.8    0.00 
 359   19:50   0.00   25.3    83    3.5   154     4.5   850.8    0.00 
 359   20:00   0.00   24.9    83    2.7   162     3.9   850.9    0.00 
 359   20:10   0.00   24.3    83    3.8   173     5.2   851.0    0.00 
 359   20:20   0.00   24.3    84    3.3   138     4.4   851.1    0.00 
 359   20:30   0.00   25.8    79    2.3   158     3.9   851.1    0.00 
 359   20:40   0.00   25.4    79    1.1   252     3.1   851.1    0.00 
 359   20:50   0.00   25.3    80    3.5   178     5.1   851.2    0.00 
 359   21:00   0.00   24.8    82    3.2   151     4.3   851.3    0.00 
 359   21:10   0.00   24.3    85    3.7   147     4.5   851.3    0.00 
 359   21:20   0.00   24.1    86    3.9   137     5.0   851.3    0.00 
 359   21:30   0.00   24.2    85    4.9   143     6.6   851.3    0.00 
 359   21:40   0.00   23.8    85    3.9   171     5.0   851.4    0.00 
 359   21:50   0.00   24.0    85    3.8   158     5.8   851.5    0.00 
 359   22:00   0.00   24.8    83    3.9   154     5.1   851.4    0.00 
 359   22:10   0.00   25.4    80    4.7   144     6.0   851.5    0.00 
 359   22:20   0.00   25.1    82    3.4   137     4.8   851.5    0.00 
 359   22:30   0.00   25.6    80    1.5   157     3.9   851.6    0.00 
 359   22:40   0.00   25.0    80    0.8   303     2.6   851.7    0.00 
 359   22:50   0.00   24.5    81    1.9   257     3.6   851.6    0.00 
 359   23:00   0.00   24.2    81    0.6   196     3.4   851.6    0.00 
 359   23:10   0.00   24.3    82    1.4    38     4.5   851.6    0.00 
 359   23:20   0.00   25.2    80    2.3   319     4.2   851.6    0.00 
 359   23:30   0.00   24.3    79    0.5    55     1.7   851.6    0.00 
 359   23:40   0.00   23.8    82    1.1   170     2.0   851.6    0.00 
 359   23:50   0.00   23.6    83    1.2   147     1.6   851.5    0.00 
 360    0:00   0.00   23.6    83    1.9    99     3.5   851.4    0.00 
 360    0:10   0.00   23.7    83    1.9    96     3.6   851.3    0.00 
 360    0:20   0.00   23.0    84    2.9   153     4.5   851.3    0.00 
 360    0:30   0.00   22.2    86    4.6   173     5.1   851.4    0.00 
 360    0:40   0.00   22.1    86    3.3   150     4.3   851.4    0.00 

Return to Smith Valley graphs page.


Western Regional Climate Center,wrcc@dri.edu